Time;durP1;ratioP1;P1;durP2;ratioP2;P2;SDS_P1;SDS_P2;PMS_P1;PMS_P2;Temp;Humidity;BMP_temperature;BMP_pressure;BME280_temperature;BME280_humidity;BME280_pressure;Samples;Min_cycle;Max_cycle;Signal;HPM_P1;HPM_P2
2022/03/01 00:01:50;;;;;;;;;57.00;47.25;;;;;6.37;55.22;102448.38;5023288;28;45498;-68
2022/03/01 00:04:15;;;;;;;;;56.50;46.00;;;;;6.40;55.83;102459.91;5023616;28;45220;-68
2022/03/01 00:06:41;;;;;;;;;55.00;43.75;;;;;6.41;55.83;102460.78;5023767;28;45552;-68
2022/03/01 00:09:06;;;;;;;;;62.75;48.50;;;;;6.40;55.43;102459.03;5023504;28;46396;-68
2022/03/01 00:11:32;;;;;;;;;34.50;29.00;;;;;6.39;55.51;102463.53;5023418;28;45411;-68
2022/03/01 00:13:58;;;;;;;;;60.50;48.00;;;;;6.39;55.06;102462.69;5022366;28;45351;-68
2022/03/01 00:16:24;;;;;;;;;61.75;48.00;;;;;6.32;56.34;102456.72;5023226;28;45474;-68
2022/03/01 00:18:49;;;;;;;;;63.25;48.00;;;;;6.28;56.18;102456.97;5023328;28;45414;-68
2022/03/01 00:21:15;;;;;;;;;65.50;51.50;;;;;6.20;57.07;102466.34;5023167;28;45405;-68
2022/03/01 00:23:40;;;;;;;;;57.75;44.50;;;;;6.15;56.43;102471.06;5022174;28;45442;-68
2022/03/01 00:26:05;;;;;;;;;51.50;44.75;;;;;6.16;56.83;102462.03;5023457;28;45328;-68
2022/03/01 00:28:31;;;;;;;;;63.25;47.50;;;;;6.14;56.89;102461.22;5021260;28;46846;-68
2022/03/01 00:30:57;;;;;;;;;62.50;45.25;;;;;6.04;57.33;102442.91;5022687;28;45657;-68
2022/03/01 00:33:22;;;;;;;;;64.00;47.50;;;;;6.08;57.21;102442.66;5023340;28;45235;-68
2022/03/01 00:35:48;;;;;;;;;62.00;47.25;;;;;6.09;57.06;102439.00;5023429;28;45255;-68
2022/03/01 00:38:13;;;;;;;;;61.00;48.25;;;;;6.09;57.11;102440.84;5021067;28;47049;-68
2022/03/01 00:40:39;;;;;;;;;65.25;48.75;;;;;6.04;57.06;102438.38;5022911;28;45240;-68
2022/03/01 00:43:04;;;;;;;;;60.25;47.75;;;;;6.07;56.58;102443.59;5022570;28;45324;-68
2022/03/01 00:45:30;;;;;;;;;60.25;48.75;;;;;6.10;56.11;102440.75;5023214;28;45389;-68
2022/03/01 00:47:55;;;;;;;;;56.25;44.50;;;;;6.04;57.27;102445.59;5022627;28;45438;-68
2022/03/01 00:50:20;;;;;;;;;65.25;48.75;;;;;6.02;57.05;102447.50;5023039;28;45227;-67
2022/03/01 00:52:46;;;;;;;;;68.00;50.50;;;;;5.97;57.28;102442.34;5023126;28;45400;-68
2022/03/01 00:55:11;;;;;;;;;66.00;52.50;;;;;5.94;57.38;102445.19;5023470;28;45375;-67
2022/03/01 00:57:37;;;;;;;;;61.50;47.00;;;;;5.92;57.57;102447.06;5021329;28;47918;-68
2022/03/01 01:00:08;;;;;;;;;62.25;51.25;;;;;5.91;57.61;102450.75;5021312;28;45386;-68
2022/03/01 01:02:33;;;;;;;;;60.25;50.00;;;;;5.89;57.70;102455.34;5021385;28;45495;-68
2022/03/01 01:04:59;;;;;;;;;63.50;49.50;;;;;5.90;57.88;102457.09;5022973;28;45462;-68
2022/03/01 01:07:25;;;;;;;;;69.75;50.75;;;;;5.90;57.64;102456.22;5021218;28;47208;-68
2022/03/01 01:09:51;;;;;;;;;68.25;50.50;;;;;5.90;57.60;102454.41;5021366;28;45174;-68
2022/03/01 01:12:16;;;;;;;;;66.50;48.75;;;;;5.85;58.02;102440.22;5021581;28;45334;-68
2022/03/01 01:14:42;;;;;;;;;62.75;49.25;;;;;5.84;58.10;102444.72;5038209;28;45493;-68
2022/03/01 01:17:07;;;;;;;;;70.25;52.50;;;;;5.85;57.62;102441.09;5020837;28;48266;-68
2022/03/01 01:19:32;;;;;;;;;66.50;51.75;;;;;5.86;57.75;102436.56;5022502;28;45413;-68
2022/03/01 01:24:44;;;;;;;;;62.00;49.50;;;;;5.82;57.82;102435.00;5022919;28;45444;-68
2022/03/01 01:27:10;;;;;;;;;62.00;51.75;;;;;5.72;58.35;102439.09;5022058;28;45629;-68
2022/03/01 01:29:35;;;;;;;;;70.00;54.00;;;;;5.68;58.51;102432.97;5016813;28;45525;-68
2022/03/01 01:32:00;;;;;;;;;72.00;55.50;;;;;5.68;58.39;102432.09;5032499;28;45653;-68
2022/03/01 01:34:26;;;;;;;;;66.75;51.25;;;;;5.73;58.42;102430.03;5019713;28;45303;-68
2022/03/01 01:36:51;;;;;;;;;48.50;43.00;;;;;5.74;58.63;102432.66;5020722;28;47473;-68
2022/03/01 01:39:16;;;;;;;;;73.50;52.75;;;;;5.69;58.59;102434.72;5020966;28;45275;-68
2022/03/01 01:41:42;;;;;;;;;65.25;50.50;;;;;5.67;58.70;102433.06;5034572;28;45508;-68
2022/03/01 01:44:07;;;;;;;;;76.25;57.00;;;;;5.63;59.06;102429.63;5018657;28;45317;-68
2022/03/01 01:46:33;;;;;;;;;70.25;53.75;;;;;5.61;58.82;102436.06;5020446;28;46756;-69
2022/03/01 01:48:59;;;;;;;;;68.00;52.25;;;;;5.65;58.77;102443.91;5022023;28;45597;-68
2022/03/01 01:51:25;;;;;;;;;66.25;53.00;;;;;5.65;58.65;102437.63;5020808;28;45450;-68
2022/03/01 01:53:52;;;;;;;;;65.50;53.75;;;;;5.63;58.47;102434.13;5022790;28;45585;-68
2022/03/01 01:56:18;;;;;;;;;73.00;54.50;;;;;5.63;58.47;102428.75;5023714;28;47192;-68
2022/03/01 01:58:43;;;;;;;;;66.25;53.50;;;;;5.57;59.17;102437.13;5025394;28;45291;-68
2022/03/01 02:01:09;;;;;;;;;67.00;55.25;;;;;5.56;59.48;102451.56;5025350;28;45318;-68
2022/03/01 02:03:35;;;;;;;;;63.75;52.00;;;;;5.48;59.40;102441.16;5024472;28;45585;-68
2022/03/01 02:06:01;;;;;;;;;68.50;53.00;;;;;5.47;59.58;102437.63;5025121;28;45421;-68
2022/03/01 02:08:33;;;;;;;;;72.50;56.25;;;;;5.46;59.67;102437.69;5025214;28;45368;-68
2022/03/01 02:11:00;;;;;;;;;74.00;55.00;;;;;5.42;60.10;102436.94;5040714;28;45418;-68
2022/03/01 02:13:25;;;;;;;;;51.75;35.50;;;;;5.44;59.42;102432.34;5024920;28;45411;-68
2022/03/01 02:15:52;;;;;;;;;72.25;54.50;;;;;5.47;58.92;102429.53;5024060;28;45389;-68
2022/03/01 02:18:17;;;;;;;;;18.00;5.25;;;;;5.45;59.68;102431.41;5023288;28;45954;-68
2022/03/01 02:20:43;;;;;;;;;77.25;56.75;;;;;5.44;59.47;102431.47;5024615;28;45279;-68
2022/03/01 02:23:09;;;;;;;;;67.75;51.00;;;;;5.43;59.44;102437.81;5023523;28;45245;-68
2022/03/01 02:25:34;;;;;;;;;76.25;56.75;;;;;5.47;59.67;102439.44;5024188;28;45222;-68
2022/03/01 02:28:00;;;;;;;;;64.50;54.00;;;;;5.49;59.41;102433.00;5023936;28;45306;-68
2022/03/01 02:30:25;;;;;;;;;72.00;55.75;;;;;5.52;58.98;102431.09;5022892;28;45244;-68
2022/03/01 02:32:51;;;;;;;;;73.25;56.75;;;;;5.53;59.24;102430.16;5023206;28;45252;-68
2022/03/01 02:35:17;;;;;;;;;75.75;58.25;;;;;5.46;59.63;102433.16;5024112;28;46116;-67
2022/03/01 02:37:43;;;;;;;;;68.75;53.75;;;;;5.47;59.56;102424.13;5024111;28;45428;-67
2022/03/01 02:40:10;;;;;;;;;70.50;55.00;;;;;5.47;60.03;102434.03;5024312;28;45383;-68
2022/03/01 02:42:39;;;;;;;;;79.75;56.25;;;;;5.46;59.91;102427.78;5040244;28;45421;-68
2022/03/01 02:45:07;;;;;;;;;69.50;55.00;;;;;5.46;59.83;102432.28;5024916;28;45421;-67
2022/03/01 02:47:32;;;;;;;;;70.75;54.75;;;;;5.49;59.51;102427.59;5024419;28;45402;-67
2022/03/01 02:49:57;;;;;;;;;69.50;53.75;;;;;5.48;59.68;102431.25;5024815;28;45712;-67
2022/03/01 02:52:23;;;;;;;;;69.50;54.50;;;;;5.52;59.57;102425.72;5023674;28;45317;-68
2022/03/01 02:54:48;;;;;;;;;69.25;55.00;;;;;5.51;59.62;102424.84;5036546;28;47149;-68
2022/03/01 02:57:13;;;;;;;;;72.75;53.75;;;;;5.46;59.08;102414.28;5024146;28;45339;-67
2022/03/01 02:59:39;;;;;;;;;72.00;55.75;;;;;5.56;59.44;102425.47;5024851;28;45375;-67
2022/03/01 03:02:04;;;;;;;;;68.75;53.50;;;;;5.55;59.52;102434.53;5023393;28;45549;-67
2022/03/01 03:04:30;;;;;;;;;73.25;55.75;;;;;5.54;59.36;102438.19;5024353;28;45454;-68
2022/03/01 03:06:56;;;;;;;;;73.50;54.25;;;;;5.53;59.25;102441.81;5024012;28;45364;-67
2022/03/01 03:09:21;;;;;;;;;78.25;59.00;;;;;5.56;59.79;102443.47;5023244;28;45423;-68
2022/03/01 03:11:47;;;;;;;;;73.75;56.25;;;;;5.47;60.35;102448.41;5024965;28;45380;-68
2022/03/01 03:14:12;;;;;;;;;74.00;56.00;;;;;5.43;60.12;102430.59;5024227;28;45388;-68
2022/03/01 03:16:37;;;;;;;;;73.25;55.25;;;;;5.43;59.75;102443.22;5024136;28;45290;-68
2022/03/01 03:19:03;;;;;;;;;69.50;54.50;;;;;5.47;59.70;102443.00;5023142;28;45375;-68
2022/03/01 03:21:28;;;;;;;;;71.75;56.00;;;;;5.45;59.50;102431.41;5024665;28;45479;-68
2022/03/01 03:23:54;;;;;;;;;73.50;57.25;;;;;5.41;60.09;102428.91;5024237;28;45220;-68
2022/03/01 03:26:19;;;;;;;;;72.25;55.75;;;;;5.41;60.57;102429.78;5024146;28;45326;-68
2022/03/01 03:28:45;;;;;;;;;71.50;56.25;;;;;5.36;60.87;102429.16;5023943;28;45216;-67
2022/03/01 03:31:10;;;;;;;;;74.50;57.50;;;;;5.37;60.67;102436.28;5023145;28;45589;-68
2022/03/01 03:33:35;;;;;;;;;68.75;53.75;;;;;5.37;60.95;102433.59;5022785;28;48079;-67
2022/03/01 03:36:01;;;;;;;;;74.00;56.75;;;;;5.36;60.83;102426.47;5023920;28;45337;-67
2022/03/01 03:38:26;;;;;;;;;76.00;59.00;;;;;5.38;61.00;102421.00;5023795;28;45243;-68
2022/03/01 03:40:52;;;;;;;;;78.25;57.50;;;;;5.41;61.23;102419.00;5024342;28;45526;-68
2022/03/01 03:43:19;;;;;;;;;72.00;55.00;;;;;5.35;61.14;102422.00;5023965;28;45679;-68
2022/03/01 03:45:45;;;;;;;;;72.00;56.25;;;;;5.35;61.39;102432.78;5023428;28;45368;-67
2022/03/01 03:48:10;;;;;;;;;79.50;58.75;;;;;5.34;61.27;102414.00;5023920;28;45369;-68
2022/03/01 03:50:35;;;;;;;;;76.00;57.25;;;;;5.40;60.95;102422.69;5024266;28;45327;-67
2022/03/01 03:53:01;;;;;;;;;74.00;59.75;;;;;5.38;61.12;102419.19;5023765;28;46301;-67
2022/03/01 03:55:27;;;;;;;;;68.75;56.25;;;;;5.41;60.99;102419.00;5022366;28;45909;-68
2022/03/01 03:57:52;;;;;;;;;73.00;56.25;;;;;5.45;60.97;102430.53;5023741;28;45244;-67
2022/03/01 04:00:18;;;;;;;;;78.00;60.00;;;;;5.35;61.39;102424.72;5022310;28;45250;-67
2022/03/01 04:02:45;;;;;;;;;73.50;55.50;;;;;5.37;61.46;102422.81;5023327;28;46527;-67
2022/03/01 04:05:12;;;;;;;;;77.00;56.50;;;;;5.46;61.29;102425.06;5023362;28;45283;-67
2022/03/01 04:07:39;;;;;;;;;69.75;52.50;;;;;5.52;60.87;102410.41;5023606;28;45321;-67
2022/03/01 04:10:05;;;;;;;;;75.00;56.00;;;;;5.51;61.05;102407.78;5023854;28;45376;-67
2022/03/01 04:12:31;;;;;;;;;74.25;56.25;;;;;5.46;61.43;102403.50;5022147;28;48682;-67
2022/03/01 04:14:57;;;;;;;;;77.25;60.00;;;;;5.33;61.62;102386.16;5035476;28;45275;-68
2022/03/01 04:17:22;;;;;;;;;63.00;49.50;;;;;5.48;61.39;102400.72;5015409;28;45351;-68
2022/03/01 04:19:47;;;;;;;;;68.50;54.75;;;;;5.51;61.44;102407.78;5023373;28;45229;-68
2022/03/01 04:22:13;;;;;;;;;78.25;57.25;;;;;5.50;61.19;102393.44;5023287;28;46269;-68
2022/03/01 04:24:38;;;;;;;;;72.75;56.25;;;;;5.60;60.91;102401.94;5023197;28;45211;-68
2022/03/01 04:27:04;;;;;;;;;76.50;60.00;;;;;5.64;61.07;102398.13;5023324;28;45315;-67
2022/03/01 04:29:29;;;;;;;;;74.25;57.25;;;;;5.61;60.98;102398.31;5022247;28;45335;-67
2022/03/01 04:31:54;;;;;;;;;74.25;56.50;;;;;5.57;61.24;102407.47;5022850;28;45354;-68
2022/03/01 04:34:20;;;;;;;;;73.50;57.75;;;;;5.54;60.98;102415.75;5023042;28;45267;-68
2022/03/01 04:36:45;;;;;;;;;79.25;62.00;;;;;5.61;60.98;102420.75;5022883;28;45625;-68
2022/03/01 04:39:10;;;;;;;;;72.50;55.00;;;;;5.60;60.99;102418.13;5021993;28;45287;-68
2022/03/01 04:41:36;;;;;;;;;74.25;59.25;;;;;5.71;60.78;102427.41;5035152;28;47122;-68
2022/03/01 04:44:01;;;;;;;;;72.75;56.00;;;;;5.80;60.69;102426.09;5021607;28;45156;-68
2022/03/01 04:46:26;;;;;;;;;69.50;57.00;;;;;5.87;60.29;102424.84;5022791;28;45218;-67
2022/03/01 04:48:52;;;;;;;;;78.50;56.00;;;;;5.92;60.42;102414.69;5021871;28;45553;-67
2022/03/01 04:51:21;;;;;;;;;72.75;55.50;;;;;5.97;59.91;102411.78;5023067;28;45382;-68
2022/03/01 04:53:50;;;;;;;;;76.50;59.00;;;;;5.96;59.89;102416.31;5021399;28;45385;-67
2022/03/01 04:56:16;;;;;;;;;73.75;56.50;;;;;5.89;60.16;102408.59;5023078;28;45363;-67
2022/03/01 04:58:42;;;;;;;;;72.25;54.50;;;;;5.81;60.07;102407.13;5023215;28;45447;-68
2022/03/01 05:01:08;;;;;;;;;74.25;58.75;;;;;5.81;60.90;102403.56;5022485;28;46857;-67
2022/03/01 05:03:33;;;;;;;;;68.50;54.25;;;;;5.87;60.14;102414.03;5022398;28;45298;-67
2022/03/01 05:05:58;;;;;;;;;80.00;60.00;;;;;5.94;60.25;102415.50;5021509;28;45342;-67
2022/03/01 05:08:24;;;;;;;;;73.25;54.75;;;;;5.94;60.61;102410.13;5022927;28;45279;-67
2022/03/01 05:10:49;;;;;;;;;77.25;57.00;;;;;6.03;60.10;102411.47;5021153;28;47557;-67
2022/03/01 05:13:14;;;;;;;;;74.25;56.50;;;;;6.07;59.90;102408.53;5034293;28;45262;-69
2022/03/01 05:15:40;;;;;;;;;74.50;59.00;;;;;6.13;59.67;102419.03;5013396;28;45737;-67
2022/03/01 05:18:06;;;;;;;;;72.00;56.00;;;;;6.10;59.87;102402.97;5021413;28;45536;-67
2022/03/01 05:20:31;;;;;;;;;72.00;56.50;;;;;6.11;59.58;102396.63;5021094;28;47108;-67
2022/03/01 05:22:56;;;;;;;;;72.25;55.50;;;;;6.20;59.23;102414.19;5021015;28;45375;-67
2022/03/01 05:25:23;;;;;;;;;68.00;52.25;;;;;6.22;59.40;102418.53;5022791;28;45310;-68
2022/03/01 05:27:51;;;;;;;;;76.25;58.00;;;;;6.19;60.06;102410.63;5017249;28;45535;-67
2022/03/01 05:30:18;;;;;;;;;68.00;54.25;;;;;6.20;59.80;102409.66;5031381;28;47581;-68
2022/03/01 05:32:46;;;;;;;;;76.50;55.00;;;;;6.21;60.11;102405.97;5025597;28;45768;-67
2022/03/01 05:35:13;;;;;;;;;66.50;54.00;;;;;6.25;59.24;102402.19;5025786;28;45411;-67
2022/03/01 05:37:40;;;;;;;;;69.00;55.25;;;;;6.30;59.09;102398.34;5025890;28;45159;-68
2022/03/01 05:40:07;;;;;;;;;73.25;55.75;;;;;6.35;58.85;102407.13;5025472;28;45303;-68
2022/03/01 05:42:33;;;;;;;;;72.00;55.25;;;;;6.32;58.68;102391.94;5024276;28;45386;-69
2022/03/01 05:45:02;;;;;;;;;77.00;57.50;;;;;6.23;59.65;102405.91;5025750;28;45397;-68
2022/03/01 05:47:27;;;;;;;;;77.00;57.75;;;;;6.22;59.14;102406.84;5025520;28;45272;-68
2022/03/01 05:49:54;;;;;;;;;72.00;54.00;;;;;6.33;59.29;102409.00;5025469;28;46308;-68
2022/03/01 05:52:20;;;;;;;;;66.00;51.75;;;;;6.34;59.00;102408.94;5023794;28;45965;-68
2022/03/01 05:54:45;;;;;;;;;72.75;56.75;;;;;6.40;58.87;102399.63;5025317;28;45185;-68
2022/03/01 05:57:11;;;;;;;;;76.25;56.00;;;;;6.40;59.10;102407.72;5025846;28;45438;-68
2022/03/01 05:59:36;;;;;;;;;78.25;55.25;;;;;6.41;58.82;102396.84;5025046;28;46495;-68
2022/03/01 06:02:02;;;;;;;;;71.25;55.75;;;;;6.45;58.28;102397.56;5025044;28;45614;-68
2022/03/01 06:04:28;;;;;;;;;75.50;59.25;;;;;6.37;59.03;102397.09;5023805;28;45459;-69
2022/03/01 06:06:53;;;;;;;;;78.00;56.00;;;;;6.30;58.94;102404.63;5022838;28;45382;-69
2022/03/01 06:09:18;;;;;;;;;74.00;58.75;;;;;6.20;59.49;102398.88;5023990;28;45392;-69
2022/03/01 06:11:44;;;;;;;;;74.25;56.00;;;;;6.10;59.62;102397.59;5025278;28;45235;-69
2022/03/01 06:14:09;;;;;;;;;71.00;56.50;;;;;6.14;59.74;102404.56;5025069;28;45301;-69
2022/03/01 06:16:35;;;;;;;;;75.25;58.50;;;;;6.12;59.62;102402.91;5024843;28;45807;-69
2022/03/01 06:19:00;;;;;;;;;73.00;58.25;;;;;6.21;60.04;102410.50;5023427;28;46697;-69
2022/03/01 06:21:26;;;;;;;;;72.25;56.25;;;;;6.25;59.37;102407.59;5024788;28;45255;-68
2022/03/01 06:23:52;;;;;;;;;75.50;58.50;;;;;6.28;59.53;102413.78;5023478;28;45402;-68
2022/03/01 06:26:17;;;;;;;;;78.75;59.00;;;;;6.09;59.72;102412.03;5040154;28;45606;-67
2022/03/01 06:28:43;;;;;;;;;80.75;59.00;;;;;6.12;59.93;102411.00;5021530;28;46884;-68
2022/03/01 06:31:08;;;;;;;;;76.00;58.00;;;;;6.06;60.39;102414.03;5022479;28;45262;-68
2022/03/01 06:33:33;;;;;;;;;77.25;58.50;;;;;6.03;60.31;102415.03;5023186;28;45309;-69
2022/03/01 06:35:59;;;;;;;;;70.25;53.75;;;;;6.11;60.04;102429.03;5036988;28;45511;-68
2022/03/01 06:38:25;;;;;;;;;74.00;58.50;;;;;6.25;59.45;102431.88;5016915;28;46541;-68
2022/03/01 06:40:55;;;;;;;;;73.50;57.25;;;;;6.27;59.40;102425.53;5023391;28;45221;-68
2022/03/01 06:43:21;;;;;;;;;72.50;56.50;;;;;6.22;59.64;102414.94;5024622;28;45341;-68
2022/03/01 06:45:46;;;;;;;;;72.50;56.25;;;;;6.37;58.94;102424.06;5024524;28;45479;-68
2022/03/01 06:48:12;;;;;;;;;69.75;54.75;;;;;6.44;58.96;102425.50;5023979;28;46489;-69
2022/03/01 06:50:37;;;;;;;;;62.00;50.75;;;;;6.50;58.38;102425.19;5023047;28;45433;-68
2022/03/01 06:53:03;;;;;;;;;74.50;55.00;;;;;6.55;58.75;102431.22;5023076;28;45414;-68
2022/03/01 06:55:28;;;;;;;;;75.50;57.25;;;;;6.59;58.54;102435.50;5025052;28;45212;-68
2022/03/01 06:57:55;;;;;;;;;78.75;58.25;;;;;6.59;58.84;102440.88;5022623;28;47322;-68
2022/03/01 07:00:20;;;;;;;;;65.25;53.50;;;;;6.64;58.38;102434.31;5022280;28;45165;-68
2022/03/01 07:02:46;;;;;;;;;72.00;56.25;;;;;6.72;58.16;102433.03;5024121;28;45319;-68
2022/03/01 07:05:14;;;;;;;;;68.25;54.75;;;;;6.67;57.95;102435.06;5024285;28;45236;-69
2022/03/01 07:07:40;;;;;;;;;71.25;56.50;;;;;6.72;57.80;102438.44;5022395;28;47204;-69
2022/03/01 07:10:08;;;;;;;;;67.50;53.75;;;;;6.76;58.14;102445.41;5023503;28;45431;-68
2022/03/01 07:12:33;;;;;;;;;73.00;55.50;;;;;6.68;58.08;102447.63;5023847;28;45240;-68
2022/03/01 07:14:59;;;;;;;;;68.00;52.00;;;;;6.70;58.08;102452.00;5023798;28;45572;-67
2022/03/01 07:17:24;;;;;;;;;80.00;58.00;;;;;6.78;58.08;102446.19;5023354;28;45498;-67
2022/03/01 07:19:50;;;;;;;;;75.25;58.00;;;;;6.65;58.10;102454.06;5018818;28;45281;-68
2022/03/01 07:22:17;;;;;;;;;72.50;51.75;;;;;6.64;58.17;102447.81;5015957;28;45223;-68
2022/03/01 07:24:42;;;;;;;;;73.50;55.50;;;;;6.79;57.76;102458.75;5023975;28;45248;-68
2022/03/01 07:27:08;;;;;;;;;72.00;55.75;;;;;6.78;58.23;102446.19;5023307;28;45390;-68
2022/03/01 07:29:34;;;;;;;;;76.25;55.50;;;;;6.90;58.09;102451.81;5021911;28;45333;-67
2022/03/01 07:32:00;;;;;;;;;71.50;55.75;;;;;7.02;57.91;102447.53;5023437;28;45284;-66
2022/03/01 07:34:26;;;;;;;;;69.75;53.75;;;;;7.02;57.41;102437.59;5023677;28;45597;-69
2022/03/01 07:36:52;;;;;;;;;73.75;55.25;;;;;7.18;57.63;102450.28;5023534;28;46135;-69
2022/03/01 07:39:18;;;;;;;;;68.50;54.00;;;;;7.27;57.08;102447.94;5023413;28;45244;-69
2022/03/01 07:41:43;;;;;;;;;73.00;54.25;;;;;7.33;57.14;102444.88;5021798;28;45217;-70
2022/03/01 07:44:08;;;;;;;;;77.50;58.00;;;;;7.35;56.95;102444.81;5019507;28;45321;-69
2022/03/01 07:46:34;;;;;;;;;73.50;57.75;;;;;7.40;57.10;102450.81;5014964;28;45271;-69
2022/03/01 07:48:59;;;;;;;;;69.00;54.25;;;;;7.42;56.63;102438.09;5037732;28;45708;-69
2022/03/01 07:51:25;;;;;;;;;74.50;55.75;;;;;7.55;56.67;102440.97;5023306;28;45974;-68
2022/03/01 07:53:53;;;;;;;;;69.25;53.00;;;;;7.62;56.82;102443.22;5023534;28;45173;-68
2022/03/01 07:56:22;;;;;;;;;73.00;56.00;;;;;7.69;55.64;102436.50;5023024;28;45430;-68
2022/03/01 07:58:48;;;;;;;;;65.25;52.50;;;;;7.78;55.82;102437.81;5021151;28;45682;-69
2022/03/01 08:01:14;;;;;;;;;75.75;57.00;;;;;7.86;55.38;102440.06;5022938;28;45261;-68
2022/03/01 08:03:39;;;;;;;;;71.50;53.00;;;;;7.89;55.26;102429.06;5022160;28;45256;-68
2022/03/01 08:06:05;;;;;;;;;69.50;53.50;;;;;7.98;55.11;102436.63;5021562;28;46874;-68
2022/03/01 08:08:31;;;;;;;;;75.75;53.75;;;;;8.01;54.66;102433.75;5034534;28;45233;-69
2022/03/01 08:10:57;;;;;;;;;65.00;53.00;;;;;8.04;54.07;102441.69;5021734;28;45379;-69
2022/03/01 08:13:23;;;;;;;;;73.25;54.50;;;;;8.12;54.84;102436.69;5021874;28;45331;-69
2022/03/01 08:15:49;;;;;;;;;66.75;51.00;;;;;8.28;54.21;102448.34;5022122;28;45689;-69
2022/03/01 08:18:14;;;;;;;;;66.25;48.50;;;;;8.33;53.84;102445.41;5022836;28;45447;-70
2022/03/01 08:20:40;;;;;;;;;65.00;49.00;;;;;8.45;53.46;102456.38;5021783;28;45498;-67
2022/03/01 08:23:05;;;;;;;;;63.50;49.00;;;;;8.53;52.76;102448.66;5023300;28;45261;-68
2022/03/01 08:25:31;;;;;;;;;50.00;37.25;;;;;8.61;51.31;102450.88;5022801;28;45455;-70
2022/03/01 08:27:56;;;;;;;;;54.75;39.25;;;;;8.71;51.46;102445.75;5020520;28;45412;-69
2022/03/01 08:30:22;;;;;;;;;58.00;42.75;;;;;8.77;50.55;102445.38;5022596;28;45259;-69
2022/03/01 08:32:49;;;;;;;;;59.25;43.00;;;;;8.80;50.26;102439.75;5021968;28;45251;-69
2022/03/01 08:35:14;;;;;;;;;54.00;45.00;;;;;8.93;50.53;102438.03;5021493;28;46961;-68
2022/03/01 08:37:40;;;;;;;;;53.75;43.00;;;;;9.01;50.27;102433.00;5022516;28;45486;-69
2022/03/01 08:40:08;;;;;;;;;55.00;44.25;;;;;9.13;49.85;102432.19;5022671;28;45232;-69
2022/03/01 08:42:33;;;;;;;;;62.50;45.50;;;;;9.23;50.53;102441.50;5021052;28;45508;-69
2022/03/01 08:44:58;;;;;;;;;55.50;44.75;;;;;9.34;50.28;102436.28;5022735;28;46660;-69
2022/03/01 08:47:26;;;;;;;;;59.00;45.75;;;;;9.45;50.71;102437.41;5021149;28;45386;-69
2022/03/01 08:49:51;;;;;;;;;59.50;48.25;;;;;9.57;49.93;102447.47;5023164;28;45295;-70
2022/03/01 08:52:17;;;;;;;;;52.75;42.00;;;;;9.69;49.11;102442.09;5022758;28;45613;-70
2022/03/01 08:54:43;;;;;;;;;54.25;42.25;;;;;9.82;49.35;102452.13;5022238;28;45259;-68
2022/03/01 08:57:09;;;;;;;;;56.25;44.75;;;;;9.93;48.54;102453.16;5022199;28;45157;-70
2022/03/01 08:59:34;;;;;;;;;49.75;42.25;;;;;9.99;48.23;102460.91;5022488;28;45220;-67
2022/03/01 09:02:00;;;;;;;;;59.00;47.75;;;;;9.95;47.46;102459.34;5022397;28;45699;-68
2022/03/01 09:04:25;;;;;;;;;54.25;42.25;;;;;10.08;48.43;102460.25;5021861;28;46858;-68
2022/03/01 09:06:50;;;;;;;;;55.50;44.25;;;;;10.19;47.74;102456.84;5024603;28;45571;-68
2022/03/01 09:09:16;;;;;;;;;58.50;43.00;;;;;10.30;47.78;102454.25;5027487;28;45173;-69
2022/03/01 09:11:41;;;;;;;;;56.75;44.75;;;;;10.34;47.54;102458.53;5026867;28;45284;-69
2022/03/01 09:14:07;;;;;;;;;59.00;46.25;;;;;10.35;47.57;102457.56;5026219;28;45438;-69
2022/03/01 09:16:32;;;;;;;;;58.50;44.75;;;;;10.41;47.35;102454.41;5025565;28;45400;-69
2022/03/01 09:18:58;;;;;;;;;47.00;39.50;;;;;10.45;46.72;102457.78;5024911;28;45378;-69
2022/03/01 09:21:23;;;;;;;;;55.75;44.25;;;;;10.45;46.99;102447.78;5025122;28;45447;-69
2022/03/01 09:23:48;;;;;;;;;60.75;47.25;;;;;10.53;46.72;102452.69;5024767;28;47288;-69
2022/03/01 09:26:15;;;;;;;;;64.50;49.50;;;;;10.59;46.55;102444.13;5025589;28;45409;-69
2022/03/01 09:28:41;;;;;;;;;54.50;41.25;;;;;10.67;46.60;102444.44;5025274;28;45460;-69
2022/03/01 09:31:08;;;;;;;;;59.25;46.50;;;;;10.74;46.41;102445.75;5025454;28;45422;-69
2022/03/01 09:33:33;;;;;;;;;60.50;46.75;;;;;10.86;46.15;102438.59;5025503;28;45410;-68
2022/03/01 09:35:59;;;;;;;;;62.75;48.25;;;;;10.98;46.02;102436.81;5025274;28;45181;-69
2022/03/01 09:38:26;;;;;;;;;57.75;46.50;;;;;11.05;44.93;102435.41;5026255;28;45281;-70
2022/03/01 09:40:52;;;;;;;;;54.75;43.50;;;;;11.05;45.10;102427.25;5026129;28;45611;-69
2022/03/01 09:43:20;;;;;;;;;55.25;43.00;;;;;11.16;44.74;102433.66;5024258;28;47345;-68
2022/03/01 09:45:46;;;;;;;;;56.00;43.75;;;;;11.19;44.42;102424.38;5037351;28;45749;-68
2022/03/01 09:48:11;;;;;;;;;59.75;45.50;;;;;11.29;44.58;102423.63;5017796;28;45318;-68
2022/03/01 09:50:37;;;;;;;;;54.75;43.00;;;;;11.31;44.60;102431.69;5025897;28;45248;-70
2022/03/01 09:53:03;;;;;;;;;50.75;41.75;;;;;11.36;44.29;102440.38;5025367;28;45482;-70
2022/03/01 09:55:29;;;;;;;;;54.25;41.25;;;;;11.41;44.53;102437.28;5025668;28;45337;-70
2022/03/01 09:57:56;;;;;;;;;51.75;40.50;;;;;11.43;44.24;102441.66;5025778;28;45149;-69
2022/03/01 10:00:22;;;;;;;;;56.25;44.25;;;;;11.39;43.94;102442.88;5025503;28;45244;-69
2022/03/01 10:02:54;;;;;;;;;51.50;38.25;;;;;11.61;44.11;102445.75;5023754;28;46202;-68
2022/03/01 10:05:31;;;;;;;;;53.75;43.75;;;;;11.70;42.30;102442.31;5037147;28;45494;-68
2022/03/01 10:08:06;;;;;;;;;56.25;42.50;;;;;11.88;42.40;102445.56;5020125;28;45264;-69
2022/03/01 10:10:37;;;;;;;;;57.75;43.00;;;;;12.17;42.05;102442.47;5024448;28;45248;-69
2022/03/01 10:13:02;;;;;;;;;29.25;23.75;;;;;12.45;42.28;102448.41;5025086;28;46504;-69
2022/03/01 10:15:29;;;;;;;;;52.75;41.75;;;;;12.62;41.86;102443.50;5022529;28;45362;-68
2022/03/01 10:17:54;;;;;;;;;46.50;37.00;;;;;12.87;42.41;102437.81;5023527;28;45418;-68
2022/03/01 10:20:20;;;;;;;;;52.75;40.00;;;;;12.83;40.13;102449.97;5025768;28;45494;-68
2022/03/01 10:22:48;;;;;;;;;47.00;39.00;;;;;12.76;40.52;102437.81;5023534;28;47211;-70
2022/03/01 10:25:16;;;;;;;;;50.50;40.00;;;;;12.77;39.75;102437.72;5023973;28;45542;-69
2022/03/01 10:27:44;;;;;;;;;47.25;37.50;;;;;12.88;40.88;102439.56;5023365;28;45517;-69
2022/03/01 10:30:10;;;;;;;;;52.75;40.50;;;;;13.11;40.18;102435.00;5025441;28;45173;-68
2022/03/01 10:32:36;;;;;;;;;37.00;28.75;;;;;13.32;40.01;102435.13;5024602;28;46361;-69
2022/03/01 10:35:07;;;;;;;;;52.75;40.25;;;;;13.38;39.99;102437.38;5024921;28;45267;-69
2022/03/01 10:37:38;;;;;;;;;54.25;40.75;;;;;13.50;40.80;102436.38;5024841;28;45287;-69
2022/03/01 10:40:21;;;;;;;;;53.50;41.00;;;;;13.51;39.80;102432.66;5025096;28;45291;-69
2022/03/01 10:43:05;;;;;;;;;52.50;40.00;;;;;13.52;39.80;102434.38;5040128;28;48320;-69
2022/03/01 10:45:32;;;;;;;;;45.25;38.00;;;;;13.49;39.72;102423.72;5023306;28;45205;-69
2022/03/01 10:47:57;;;;;;;;;40.75;36.00;;;;;13.50;40.39;102426.31;5020249;28;45461;-69
2022/03/01 10:50:23;;;;;;;;;54.75;43.25;;;;;13.37;39.39;102430.19;5021766;28;45300;-69
2022/03/01 10:52:49;;;;;;;;;51.50;42.25;;;;;13.07;39.22;102422.59;5024731;28;46568;-70
2022/03/01 10:55:26;;;;;;;;;55.25;43.00;;;;;13.07;40.30;102423.47;5024131;28;45713;-69
2022/03/01 10:58:06;;;;;;;;;44.00;35.75;;;;;13.22;40.21;102411.31;5024662;28;45588;-69
2022/03/01 11:00:34;;;;;;;;;47.25;36.00;;;;;13.44;40.56;102415.03;5024829;28;45554;-69
2022/03/01 11:03:02;;;;;;;;;55.25;39.75;;;;;13.52;39.29;102412.53;5022714;28;48603;-69
2022/03/01 11:05:32;;;;;;;;;42.00;36.75;;;;;13.52;39.38;102399.75;5024205;28;45446;-69
2022/03/01 11:08:01;;;;;;;;;38.25;35.00;;;;;13.57;38.82;102399.38;5024372;28;45343;-69
2022/03/01 11:10:30;;;;;;;;;44.75;36.00;;;;;13.52;38.28;102407.06;5023468;28;45329;-68
2022/03/01 11:12:59;;;;;;;;;23.50;16.75;;;;;13.70;39.24;102407.41;5024086;28;45412;-68
2022/03/01 11:15:47;;;;;;;;;44.75;35.00;;;;;13.84;39.50;102399.78;5023864;28;45362;-70